Time;durP1;ratioP1;P1;durP2;ratioP2;P2;SDS_P1;SDS_P2;PMS_P1;PMS_P2;Temp;Humidity;BMP_temperature;BMP_pressure;BME280_temperature;BME280_humidity;BME280_pressure;Samples;Min_cycle;Max_cycle;Signal;HPM_P1;HPM_P2
2022/03/19 00:00:05;;;;;;;88.00;48.40;;;4.00;99.90;;;;;;5054427;28;20056;-66
2022/03/19 00:02:42;;;;;;;86.43;47.80;;;4.00;99.90;;;;;;5052063;28;20041;-65
2022/03/19 00:05:09;;;;;;;84.10;47.25;;;4.00;99.90;;;;;;5066522;28;20044;-65
2022/03/19 00:07:40;;;;;;;86.80;49.05;;;4.00;99.90;;;;;;5062687;28;20060;-66
2022/03/19 00:10:10;;;;;;;80.45;48.20;;;3.90;99.90;;;;;;5071089;28;20090;-66
2022/03/19 00:12:39;;;;;;;89.85;49.10;;;3.90;99.90;;;;;;5051867;28;20044;-66
2022/03/19 00:15:09;;;;;;;85.45;49.28;;;3.90;99.90;;;;;;5071832;28;20048;-67
2022/03/19 00:17:39;;;;;;;89.97;50.97;;;3.90;99.90;;;;;;5072128;28;20119;-65
2022/03/19 00:20:07;;;;;;;84.55;50.10;;;3.90;99.90;;;;;;5065814;28;20052;-66
2022/03/19 00:22:35;;;;;;;87.28;49.75;;;3.90;99.90;;;;;;5051689;28;20064;-67
2022/03/19 00:25:03;;;;;;;93.55;49.90;;;3.90;99.90;;;;;;5050765;28;20044;-66
2022/03/19 00:27:30;;;;;;;94.40;51.42;;;3.80;99.90;;;;;;5053695;28;20613;-65
2022/03/19 00:29:59;;;;;;;98.07;53.15;;;3.90;99.90;;;;;;5048461;28;20411;-66
2022/03/19 00:32:26;;;;;;;103.38;55.47;;;3.80;99.90;;;;;;5053155;28;20041;-66
2022/03/19 00:34:55;;;;;;;96.55;53.22;;;3.80;99.90;;;;;;5051183;28;20034;-66
2022/03/19 00:37:23;;;;;;;96.00;52.25;;;3.80;99.90;;;;;;5047156;28;20057;-66
2022/03/19 00:39:51;;;;;;;104.70;55.55;;;3.80;99.90;;;;;;5052092;28;20056;-66
2022/03/19 00:42:18;;;;;;;101.85;53.42;;;3.80;99.90;;;;;;5051532;28;20075;-66
2022/03/19 00:44:47;;;;;;;99.90;52.25;;;3.80;99.90;;;;;;5052443;28;20045;-65
2022/03/19 00:47:14;;;;;;;97.22;52.15;;;3.80;99.90;;;;;;5065337;28;20090;-65
2022/03/19 00:49:41;;;;;;;100.07;52.72;;;3.80;99.90;;;;;;5058103;28;20415;-65
2022/03/19 00:52:08;;;;;;;97.30;52.17;;;3.80;99.90;;;;;;5068222;28;20131;-65
2022/03/19 00:54:36;;;;;;;95.50;50.58;;;3.80;99.90;;;;;;5058177;28;20041;-65
2022/03/19 00:57:03;;;;;;;86.93;48.30;;;3.80;99.90;;;;;;5053651;28;20037;-65
2022/03/19 00:59:30;;;;;;;88.80;48.88;;;3.70;99.90;;;;;;5052063;28;20049;-65
2022/03/19 01:01:58;;;;;;;82.72;46.95;;;3.70;99.90;;;;;;5063294;28;20051;-65
2022/03/19 01:04:25;;;;;;;81.85;46.30;;;3.70;99.90;;;;;;5045503;28;20069;-65
2022/03/19 01:06:52;;;;;;;83.95;46.28;;;3.70;99.90;;;;;;5064268;28;20444;-64
2022/03/19 01:09:20;;;;;;;80.53;45.22;;;3.70;99.90;;;;;;5061248;28;20045;-65
2022/03/19 01:11:48;;;;;;;82.88;44.40;;;3.70;99.90;;;;;;5053294;28;20119;-64
2022/03/19 01:14:16;;;;;;;80.68;45.92;;;3.70;99.90;;;;;;5064945;28;20033;-65
2022/03/19 01:16:43;;;;;;;88.28;47.50;;;3.60;99.90;;;;;;5050048;28;20063;-65
2022/03/19 01:19:10;;;;;;;87.47;48.58;;;3.70;99.90;;;;;;5064702;28;20044;-65
2022/03/19 01:21:39;;;;;;;90.28;47.70;;;3.60;99.90;;;;;;5052800;28;20053;-66
2022/03/19 01:24:07;;;;;;;93.85;50.47;;;3.60;99.90;;;;;;5049034;28;20392;-65
2022/03/19 01:26:35;;;;;;;93.03;49.92;;;3.60;99.90;;;;;;5050685;28;20049;-65
2022/03/19 01:29:03;;;;;;;92.22;49.17;;;3.60;99.90;;;;;;5050036;28;20122;-66
2022/03/19 01:31:30;;;;;;;89.63;49.05;;;3.60;99.90;;;;;;5050977;28;20067;-66
2022/03/19 01:33:57;;;;;;;94.63;48.17;;;3.60;99.90;;;;;;5051324;28;20143;-65
2022/03/19 01:36:25;;;;;;;80.00;45.30;;;3.60;99.90;;;;;;5035171;28;20045;-65
2022/03/19 01:38:53;;;;;;;87.65;45.58;;;3.60;99.90;;;;;;5044691;28;20550;-65
2022/03/19 01:41:20;;;;;;;84.82;45.88;;;3.60;99.90;;;;;;5052866;28;20041;-65
2022/03/19 01:43:48;;;;;;;90.60;46.70;;;3.60;99.90;;;;;;5051932;28;20041;-65
2022/03/19 01:46:15;;;;;;;77.50;42.42;;;3.60;99.90;;;;;;5051039;28;20048;-65
2022/03/19 01:48:42;;;;;;;82.05;44.72;;;3.60;99.90;;;;;;5049212;28;20464;-65
2022/03/19 01:51:10;;;;;;;91.90;49.30;;;3.60;99.90;;;;;;5050645;28;20416;-65
2022/03/19 01:53:37;;;;;;;100.65;52.03;;;3.60;99.90;;;;;;5050584;28;20524;-64
2022/03/19 01:56:05;;;;;;;89.90;48.58;;;3.70;99.90;;;;;;5051952;28;20072;-65
2022/03/19 01:58:34;;;;;;;91.90;49.53;;;3.60;99.90;;;;;;5054081;28;20396;-65
2022/03/19 02:01:02;;;;;;;90.88;48.78;;;3.70;99.90;;;;;;5049685;28;20386;-64
2022/03/19 02:03:30;;;;;;;93.00;49.50;;;3.70;99.90;;;;;;5058633;28;20044;-65
2022/03/19 02:06:00;;;;;;;90.22;45.85;;;3.80;99.90;;;;;;5055377;28;20044;-65
2022/03/19 02:08:28;;;;;;;84.32;44.88;;;3.80;99.90;;;;;;5056466;28;20040;-65
2022/03/19 02:10:55;;;;;;;85.00;47.42;;;3.80;99.90;;;;;;5054967;28;20045;-65
2022/03/19 02:13:24;;;;;;;83.10;45.28;;;3.80;99.90;;;;;;5059701;28;20036;-65
2022/03/19 02:15:51;;;;;;;76.15;44.03;;;3.80;99.90;;;;;;5053350;28;20615;-65
2022/03/19 02:18:18;;;;;;;78.88;43.63;;;3.80;99.90;;;;;;5056547;28;20109;-65
2022/03/19 02:20:46;;;;;;;78.20;44.35;;;3.80;99.90;;;;;;5053917;28;20163;-65
2022/03/19 02:26:10;;;;;;;85.60;45.15;;;3.80;99.90;;;;;;5056404;28;20076;-65
2022/03/19 02:28:37;;;;;;;89.38;44.75;;;3.80;99.90;;;;;;5058605;28;20455;-65
2022/03/19 02:31:05;;;;;;;75.03;43.50;;;3.90;99.90;;;;;;5057013;28;20098;-66
2022/03/19 02:33:32;;;;;;;76.43;42.63;;;3.80;99.90;;;;;;5055667;28;20567;-66
2022/03/19 02:36:00;;;;;;;77.35;43.92;;;3.80;99.90;;;;;;5058141;28;20120;-66
2022/03/19 02:38:27;;;;;;;76.57;43.40;;;3.80;99.90;;;;;;5050024;28;20033;-65
2022/03/19 02:40:54;;;;;;;75.70;42.80;;;3.70;99.90;;;;;;5047907;28;20048;-65
2022/03/19 02:43:21;;;;;;;78.72;44.90;;;3.70;99.90;;;;;;5053057;28;20078;-65
2022/03/19 02:45:49;;;;;;;89.10;45.75;;;3.70;99.90;;;;;;5057670;28;20040;-65
2022/03/19 02:48:16;;;;;;;79.05;43.83;;;3.70;99.90;;;;;;5054699;28;20533;-65
2022/03/19 02:50:44;;;;;;;78.00;42.63;;;3.60;99.90;;;;;;5055998;28;20133;-66
2022/03/19 02:53:12;;;;;;;76.55;42.45;;;3.50;99.90;;;;;;5049068;28;20048;-65
2022/03/19 02:55:41;;;;;;;79.40;42.33;;;3.40;99.90;;;;;;5046069;28;20043;-65
2022/03/19 02:58:09;;;;;;;74.50;41.97;;;3.20;99.90;;;;;;5050702;28;20412;-66
2022/03/19 03:00:38;;;;;;;76.55;42.08;;;3.10;99.90;;;;;;5047193;28;20033;-66
2022/03/19 03:03:06;;;;;;;73.03;41.47;;;3.10;99.90;;;;;;5047190;28;20423;-66
2022/03/19 03:05:35;;;;;;;75.72;41.65;;;3.00;99.90;;;;;;5047952;28;20479;-66
2022/03/19 03:08:03;;;;;;;79.20;44.40;;;2.90;99.90;;;;;;5046884;28;20064;-66
2022/03/19 03:10:32;;;;;;;81.65;41.88;;;2.90;99.90;;;;;;5048341;28;20041;-65
2022/03/19 03:13:00;;;;;;;81.40;43.40;;;2.90;99.90;;;;;;5046713;28;20072;-66
2022/03/19 03:15:28;;;;;;;79.30;43.80;;;2.90;99.90;;;;;;5044566;28;20516;-66
2022/03/19 03:17:56;;;;;;;89.75;45.97;;;2.80;99.90;;;;;;5051092;28;20456;-66
2022/03/19 03:20:23;;;;;;;81.13;43.00;;;2.80;99.90;;;;;;5048015;28;20052;-66
2022/03/19 03:22:51;;;;;;;83.70;42.78;;;2.70;99.90;;;;;;5041441;28;20125;-66
2022/03/19 03:25:24;;;;;;;80.93;43.60;;;2.70;99.90;;;;;;5065776;28;20055;-66
2022/03/19 03:27:52;;;;;;;80.75;44.40;;;2.70;99.90;;;;;;5067652;28;20048;-66
2022/03/19 03:30:20;;;;;;;80.88;45.40;;;2.60;99.90;;;;;;5067541;28;20044;-65
2022/03/19 03:32:48;;;;;;;82.22;42.95;;;2.70;99.90;;;;;;5063401;28;20119;-64
2022/03/19 03:35:15;;;;;;;82.45;44.20;;;2.60;99.90;;;;;;5070868;28;20051;-66
2022/03/19 03:37:43;;;;;;;89.35;45.83;;;2.60;99.90;;;;;;5067323;28;20539;-65
2022/03/19 03:40:11;;;;;;;83.10;44.35;;;2.50;99.90;;;;;;5069457;28;20468;-65
2022/03/19 03:42:43;;;;;;;87.72;44.42;;;2.50;99.90;;;;;;5066065;28;20055;-65
2022/03/19 03:45:11;;;;;;;90.50;44.30;;;2.50;99.90;;;;;;5054179;28;20427;-66
2022/03/19 03:47:39;;;;;;;88.03;45.80;;;2.50;99.90;;;;;;5053177;28;20385;-66
2022/03/19 03:50:07;;;;;;;86.28;44.65;;;2.50;99.90;;;;;;5056505;28;20152;-65
2022/03/19 03:52:35;;;;;;;86.72;44.63;;;2.50;99.90;;;;;;5060247;28;20033;-67
2022/03/19 03:55:06;;;;;;;86.22;44.45;;;2.50;99.90;;;;;;5057834;28;20053;-66
2022/03/19 03:57:34;;;;;;;86.03;43.92;;;2.50;99.90;;;;;;5066774;28;20101;-66
2022/03/19 04:00:04;;;;;;;89.38;45.13;;;2.50;99.90;;;;;;5054268;28;20059;-65
2022/03/19 04:02:38;;;;;;;82.68;43.58;;;2.50;99.90;;;;;;5052306;28;20055;-66
2022/03/19 04:05:07;;;;;;;97.13;47.92;;;2.50;99.90;;;;;;5048306;28;20094;-66
2022/03/19 04:07:35;;;;;;;92.20;46.10;;;2.50;99.90;;;;;;5052136;28;20047;-65
2022/03/19 04:10:03;;;;;;;82.40;44.92;;;2.50;99.90;;;;;;5070087;28;20048;-65
2022/03/19 04:12:30;;;;;;;84.97;45.75;;;2.50;99.90;;;;;;5064547;28;20056;-65
2022/03/19 04:14:57;;;;;;;85.22;45.70;;;2.50;99.90;;;;;;5056502;28;20515;-65
2022/03/19 04:17:24;;;;;;;83.55;44.03;;;2.50;99.90;;;;;;5053652;28;20491;-65
2022/03/19 04:19:52;;;;;;;91.55;47.00;;;2.50;99.90;;;;;;5052437;28;20067;-65
2022/03/19 04:22:19;;;;;;;87.10;48.05;;;2.50;99.90;;;;;;5055843;28;20500;-65
2022/03/19 04:24:46;;;;;;;84.38;46.13;;;2.50;99.90;;;;;;5067267;28;20545;-65
2022/03/19 04:27:14;;;;;;;88.25;47.97;;;2.60;99.90;;;;;;5065227;28;20057;-66
2022/03/19 04:29:41;;;;;;;94.00;47.83;;;2.60;99.90;;;;;;5068244;28;20048;-66
2022/03/19 04:32:09;;;;;;;88.30;46.17;;;2.60;99.90;;;;;;5058620;28;20045;-66
2022/03/19 04:34:36;;;;;;;87.72;44.90;;;2.60;99.90;;;;;;5063600;28;20142;-65
2022/03/19 04:37:04;;;;;;;90.07;47.13;;;2.70;99.90;;;;;;5070335;28;20499;-64
2022/03/19 04:39:31;;;;;;;92.32;47.10;;;2.70;99.90;;;;;;5058871;28;20422;-66
2022/03/19 04:41:58;;;;;;;87.72;45.78;;;2.70;99.90;;;;;;5070126;28;20048;-65
2022/03/19 04:44:25;;;;;;;90.45;45.70;;;2.70;99.90;;;;;;5066340;28;20406;-65
2022/03/19 04:46:53;;;;;;;88.82;47.47;;;2.70;99.90;;;;;;5068840;28;20049;-66
2022/03/19 04:49:21;;;;;;;94.18;48.80;;;2.70;99.90;;;;;;5066926;28;20058;-66
2022/03/19 04:51:49;;;;;;;87.07;46.38;;;2.80;99.90;;;;;;5044834;28;20051;-66
2022/03/19 04:54:16;;;;;;;94.40;49.70;;;2.70;99.90;;;;;;5068849;28;20040;-66
2022/03/19 04:56:44;;;;;;;94.28;47.53;;;2.70;99.90;;;;;;5056116;28;20044;-66
2022/03/19 04:59:14;;;;;;;86.05;45.97;;;2.70;99.90;;;;;;5063022;28;20463;-66
2022/03/19 05:01:41;;;;;;;86.93;47.13;;;2.70;99.90;;;;;;5050058;28;20049;-66
2022/03/19 05:04:09;;;;;;;89.70;48.22;;;2.70;99.90;;;;;;5051265;28;20056;-66
2022/03/19 05:06:36;;;;;;;81.15;46.00;;;2.70;99.90;;;;;;5051320;28;20134;-65
2022/03/19 05:11:50;;;;;;;89.22;46.10;;;2.70;99.90;;;;;;5050881;28;20056;-66
2022/03/19 05:14:18;;;;;;;86.45;46.90;;;2.60;99.90;;;;;;5049336;28;20040;-66
2022/03/19 05:16:45;;;;;;;84.90;44.20;;;2.60;99.90;;;;;;5049126;28;20049;-66
2022/03/19 05:19:12;;;;;;;84.65;44.90;;;2.60;99.90;;;;;;5050239;28;20102;-63
2022/03/19 05:21:39;;;;;;;84.22;45.03;;;2.50;99.90;;;;;;5057452;28;20059;-66
2022/03/19 05:24:07;;;;;;;90.32;46.00;;;2.50;99.90;;;;;;5053292;28;20044;-65
2022/03/19 05:26:36;;;;;;;87.40;45.92;;;2.60;99.90;;;;;;5050507;28;20459;-66
2022/03/19 05:29:03;;;;;;;89.05;45.00;;;2.60;99.90;;;;;;5057741;28;20118;-66
2022/03/19 05:31:34;;;;;;;90.85;44.88;;;2.60;99.90;;;;;;5044258;28;20148;-65
2022/03/19 05:36:47;;;;;;;90.53;45.70;;;2.60;99.90;;;;;;5059524;28;20067;-66
2022/03/19 05:39:14;;;;;;;86.38;45.60;;;2.60;99.90;;;;;;5051329;28;20044;-65
2022/03/19 05:41:41;;;;;;;93.07;46.75;;;2.70;99.90;;;;;;5050173;28;20045;-65
2022/03/19 05:44:09;;;;;;;84.75;44.17;;;2.80;99.90;;;;;;5052893;28;20467;-67
2022/03/19 05:46:36;;;;;;;81.88;46.00;;;2.90;99.90;;;;;;5051003;28;20036;-64
2022/03/19 05:49:03;;;;;;;83.43;45.63;;;2.90;99.90;;;;;;5052749;28;20053;-65
2022/03/19 05:51:30;;;;;;;83.65;44.85;;;3.00;99.90;;;;;;5051766;28;20364;-65
2022/03/19 05:53:58;;;;;;;81.78;45.05;;;3.00;99.90;;;;;;5051793;28;20410;-65
2022/03/19 05:56:25;;;;;;;79.28;42.72;;;3.10;99.90;;;;;;5058533;28;20511;-66
2022/03/19 05:58:54;;;;;;;76.93;42.58;;;3.10;99.90;;;;;;5060157;28;20495;-66
2022/03/19 06:01:26;;;;;;;84.20;44.25;;;3.10;99.90;;;;;;5057323;28;20068;-66
2022/03/19 06:03:58;;;;;;;76.57;39.67;;;3.20;99.90;;;;;;5049831;28;20067;-66
2022/03/19 06:06:26;;;;;;;77.53;39.28;;;3.20;99.90;;;;;;5050834;28;20049;-66
2022/03/19 06:08:54;;;;;;;77.93;41.67;;;3.30;99.90;;;;;;5049746;28;20106;-66
2022/03/19 06:11:22;;;;;;;74.28;40.38;;;3.30;99.90;;;;;;5049548;28;20052;-66
2022/03/19 06:13:49;;;;;;;67.95;37.15;;;3.40;99.90;;;;;;5047225;28;20045;-66
2022/03/19 06:16:16;;;;;;;69.05;37.58;;;3.40;99.90;;;;;;5050048;28;20053;-67
2022/03/19 06:18:46;;;;;;;75.80;37.85;;;3.40;99.90;;;;;;5057417;28;20045;-65
2022/03/19 06:21:14;;;;;;;66.68;36.38;;;3.40;99.90;;;;;;5047690;28;20396;-66
2022/03/19 06:23:41;;;;;;;67.15;36.13;;;3.30;99.90;;;;;;5062488;28;20072;-65
2022/03/19 06:26:08;;;;;;;70.53;36.08;;;3.40;99.90;;;;;;5055152;28;20526;-66
2022/03/19 06:28:36;;;;;;;64.35;35.25;;;3.40;99.90;;;;;;5066946;28;20053;-66
2022/03/19 06:31:04;;;;;;;66.32;33.88;;;3.40;99.90;;;;;;5038226;28;20056;-66
2022/03/19 06:33:33;;;;;;;64.47;33.35;;;3.50;99.90;;;;;;5056843;28;20548;-65
2022/03/19 06:38:46;;;;;;;62.30;33.15;;;3.60;99.90;;;;;;5044018;28;20045;-66
2022/03/19 06:41:13;;;;;;;61.25;32.53;;;3.60;99.90;;;;;;5049994;28;20056;-65
2022/03/19 06:43:43;;;;;;;60.15;32.78;;;3.70;99.90;;;;;;5054907;28;20044;-66
2022/03/19 06:46:10;;;;;;;58.65;32.67;;;3.80;99.90;;;;;;5045440;28;20072;-66
2022/03/19 06:48:39;;;;;;;59.17;32.80;;;3.90;99.90;;;;;;5052842;28;20045;-66
2022/03/19 06:51:06;;;;;;;61.40;32.47;;;3.90;99.90;;;;;;5048862;28;20372;-66
2022/03/19 06:53:36;;;;;;;62.08;32.78;;;3.90;99.90;;;;;;5059611;28;20041;-64
2022/03/19 06:56:04;;;;;;;62.15;31.90;;;4.00;99.90;;;;;;5063322;28;20044;-65
2022/03/19 06:58:32;;;;;;;56.95;31.88;;;4.00;99.90;;;;;;5063927;28;20040;-65
2022/03/19 07:01:01;;;;;;;61.88;33.20;;;4.00;99.90;;;;;;5058329;28;20148;-66
2022/03/19 07:03:29;;;;;;;61.13;33.03;;;4.00;99.90;;;;;;5054204;28;20045;-66
2022/03/19 07:05:56;;;;;;;57.67;32.75;;;4.00;99.90;;;;;;5048378;28;20131;-66
2022/03/19 07:08:44;;;;;;;61.85;32.97;;;4.10;99.90;;;;;;5048440;28;20401;-66
2022/03/19 07:11:12;;;;;;;60.03;32.88;;;4.10;99.90;;;;;;5067568;28;20086;-66
2022/03/19 07:13:39;;;;;;;67.03;32.58;;;4.10;99.90;;;;;;5045394;28;20496;-66
2022/03/19 07:16:07;;;;;;;55.80;30.90;;;4.20;99.90;;;;;;5067008;28;20135;-66
2022/03/19 07:18:34;;;;;;;57.58;32.00;;;4.30;99.90;;;;;;5059649;28;20041;-66
2022/03/19 07:21:01;;;;;;;56.42;31.48;;;4.40;99.90;;;;;;5049875;28;20392;-66
2022/03/19 07:23:28;;;;;;;63.35;33.75;;;4.60;99.90;;;;;;5048852;28;20041;-65
2022/03/19 07:25:59;;;;;;;62.42;34.53;;;4.70;99.90;;;;;;5054633;28;20041;-65
2022/03/19 07:28:27;;;;;;;60.72;33.72;;;4.80;99.90;;;;;;5062275;28;20475;-65
2022/03/19 07:30:56;;;;;;;62.72;34.15;;;5.00;99.90;;;;;;5038939;28;20531;-66
2022/03/19 07:33:24;;;;;;;59.15;33.17;;;5.10;99.90;;;;;;5037295;28;20064;-65
2022/03/19 07:35:51;;;;;;;58.72;33.00;;;5.30;99.90;;;;;;5053458;28;20060;-66
2022/03/19 07:38:19;;;;;;;62.63;34.65;;;5.40;99.90;;;;;;5059018;28;20045;-66
2022/03/19 07:43:32;;;;;;;66.80;36.30;;;5.70;99.90;;;;;;5056669;28;20151;-66
2022/03/19 07:45:59;;;;;;;57.75;33.83;;;5.80;99.90;;;;;;5046067;28;20053;-66
2022/03/19 07:48:26;;;;;;;68.47;37.50;;;5.90;99.90;;;;;;5050418;28;20495;-66
2022/03/19 07:50:55;;;;;;;55.67;34.35;;;6.10;99.90;;;;;;5050318;28;20510;-66
2022/03/19 07:53:23;;;;;;;64.28;37.50;;;6.20;99.90;;;;;;5046886;28;20049;-66
2022/03/19 07:55:50;;;;;;;63.60;36.10;;;6.30;99.90;;;;;;5059193;28;20052;-66
2022/03/19 07:58:18;;;;;;;63.63;35.85;;;6.40;99.90;;;;;;5050380;28;20057;-66
2022/03/19 08:00:46;;;;;;;69.32;37.95;;;6.50;99.90;;;;;;5038639;28;20037;-66
2022/03/19 08:03:13;;;;;;;63.85;36.72;;;6.50;99.90;;;;;;5043501;28;20579;-65
2022/03/19 08:05:42;;;;;;;68.70;36.72;;;6.70;99.90;;;;;;5050464;28;20482;-66
2022/03/19 08:08:10;;;;;;;64.57;38.00;;;6.80;99.90;;;;;;5061752;28;20476;-66
2022/03/19 08:10:37;;;;;;;68.20;37.72;;;6.90;99.90;;;;;;5065312;28;20041;-66
2022/03/19 08:13:07;;;;;;;70.68;40.53;;;7.00;99.90;;;;;;5062705;28;20051;-66
2022/03/19 08:15:37;;;;;;;64.90;39.17;;;7.20;99.90;;;;;;5063403;28;20048;-65
2022/03/19 08:18:05;;;;;;;63.38;34.97;;;7.40;99.90;;;;;;5055098;28;20126;-65
2022/03/19 08:20:32;;;;;;;58.35;33.30;;;7.50;99.90;;;;;;5043817;28;20046;-66
2022/03/19 08:22:59;;;;;;;49.08;30.20;;;7.60;99.90;;;;;;5049539;28;20060;-66
2022/03/19 08:25:27;;;;;;;51.05;30.25;;;7.80;99.90;;;;;;5051624;28;20037;-67
2022/03/19 08:27:54;;;;;;;51.20;30.73;;;8.00;99.90;;;;;;5053223;28;20060;-66
2022/03/19 08:30:21;;;;;;;49.78;30.55;;;8.10;99.90;;;;;;5038538;28;20042;-66
2022/03/19 08:32:49;;;;;;;48.08;27.38;;;8.30;99.90;;;;;;5051807;28;20479;-66
2022/03/19 08:35:16;;;;;;;33.15;18.83;;;8.50;99.90;;;;;;5052950;28;20048;-66
2022/03/19 08:37:46;;;;;;;26.48;15.65;;;8.70;99.90;;;;;;5052930;28;20045;-66
2022/03/19 08:40:16;;;;;;;28.50;14.68;;;8.90;99.90;;;;;;5053892;28;20514;-66
2022/03/19 08:42:45;;;;;;;24.35;13.85;;;9.10;99.90;;;;;;5052255;28;20048;-67
2022/03/19 08:45:12;;;;;;;22.95;13.73;;;9.30;99.90;;;;;;5052325;28;20508;-66
2022/03/19 08:47:41;;;;;;;26.38;12.73;;;9.60;99.90;;;;;;5054189;28;20044;-67
2022/03/19 08:50:08;;;;;;;24.83;12.90;;;9.70;99.90;;;;;;5053751;28;20132;-66
2022/03/19 08:52:36;;;;;;;23.90;12.63;;;9.80;99.90;;;;;;5051917;28;20052;-66
2022/03/19 08:55:04;;;;;;;28.30;13.30;;;10.00;99.90;;;;;;5053489;28;20033;-66
2022/03/19 08:57:32;;;;;;;27.58;13.30;;;10.20;99.90;;;;;;5059756;28;20385;-66
2022/03/19 08:59:59;;;;;;;19.98;12.40;;;10.20;99.90;;;;;;5057790;28;20033;-65
2022/03/19 09:02:42;;;;;;;23.13;13.27;;;10.40;99.90;;;;;;5039298;28;20048;-66
2022/03/19 09:05:10;;;;;;;21.58;12.63;;;10.50;99.90;;;;;;5052794;28;20553;-66
2022/03/19 09:07:37;;;;;;;25.23;13.55;;;10.70;99.90;;;;;;5052880;28;20037;-66
2022/03/19 09:10:05;;;;;;;23.27;13.35;;;10.80;99.90;;;;;;5051348;28;20056;-66
2022/03/19 09:12:36;;;;;;;23.38;12.65;;;10.70;99.90;;;;;;5051287;28;20131;-66
2022/03/19 09:15:05;;;;;;;22.85;11.43;;;10.90;99.90;;;;;;5050714;28;20439;-66
2022/03/19 09:17:33;;;;;;;17.40;10.68;;;10.90;99.90;;;;;;5050668;28;20304;-66
2022/03/19 09:20:00;;;;;;;23.02;11.38;;;11.00;99.90;;;;;;5051533;28;20044;-65
2022/03/19 09:22:29;;;;;;;21.08;10.90;;;11.10;99.90;;;;;;5051396;28;20041;-67
2022/03/19 09:24:57;;;;;;;17.10;9.75;;;11.20;99.90;;;;;;5051125;28;20531;-65
2022/03/19 09:27:24;;;;;;;16.10;9.77;;;11.10;99.90;;;;;;5051428;28;20570;-66
2022/03/19 09:29:51;;;;;;;19.00;9.13;;;11.10;99.90;;;;;;5049856;28;20477;-67
2022/03/19 09:32:19;;;;;;;17.85;9.57;;;10.80;99.90;;;;;;5035526;28;20052;-66
2022/03/19 09:34:49;;;;;;;19.73;9.65;;;10.80;99.90;;;;;;5050648;28;20064;-67
2022/03/19 09:37:17;;;;;;;16.45;10.05;;;10.90;99.90;;;;;;5051778;28;20075;-66
2022/03/19 09:39:44;;;;;;;17.38;9.82;;;11.20;99.90;;;;;;5051704;28;20491;-66
2022/03/19 09:42:12;;;;;;;17.98;9.15;;;11.40;99.90;;;;;;5050925;28;20064;-67
2022/03/19 09:44:43;;;;;;;16.05;8.32;;;11.70;99.90;;;;;;5050670;28;20045;-67
2022/03/19 09:47:13;;;;;;;14.48;7.70;;;12.10;99.90;;;;;;5060662;28;20444;-66
2022/03/19 09:49:41;;;;;;;18.00;8.23;;;12.10;99.90;;;;;;5058774;28;20040;-66
2022/03/19 09:52:12;;;;;;;15.30;8.40;;;12.20;99.90;;;;;;5060978;28;20037;-67
2022/03/19 09:54:39;;;;;;;14.75;7.85;;;12.30;99.90;;;;;;5054684;28;20037;-66
2022/03/19 09:57:06;;;;;;;16.65;7.65;;;12.20;99.90;;;;;;5064547;28;20040;-66
2022/03/19 09:59:36;;;;;;;13.88;7.95;;;12.10;99.90;;;;;;5059649;28;20488;-67
2022/03/19 10:02:07;;;;;;;17.75;7.25;;;12.10;99.90;;;;;;5035507;28;20072;-67
2022/03/19 10:04:40;;;;;;;17.95;9.35;;;12.10;99.90;;;;;;5035992;28;20461;-66
2022/03/19 10:09:56;;;;;;;12.68;6.05;;;11.90;99.90;;;;;;5049365;28;20055;-67
2022/03/19 10:12:27;;;;;;;11.65;5.82;;;11.90;99.90;;;;;;5058555;28;20041;-67
2022/03/19 10:14:57;;;;;;;11.07;6.03;;;11.80;99.90;;;;;;5064923;28;20040;-65
2022/03/19 10:17:38;;;;;;;9.02;5.10;;;11.60;99.90;;;;;;5053420;28;20520;-67
2022/03/19 10:20:12;;;;;;;13.70;5.93;;;11.50;99.90;;;;;;5048549;28;20110;-67
2022/03/19 10:22:45;;;;;;;11.25;6.13;;;11.30;99.90;;;;;;5057100;28;20124;-66
2022/03/19 10:25:18;;;;;;;11.95;6.22;;;11.20;99.90;;;;;;5050889;28;20055;-66
2022/03/19 10:27:45;;;;;;;14.20;6.30;;;11.30;99.90;;;;;;5052346;28;20049;-67
2022/03/19 10:30:19;;;;;;;11.85;5.57;;;11.60;99.90;;;;;;5050802;28;20053;-67
2022/03/19 10:32:53;;;;;;;11.13;5.57;;;12.10;99.90;;;;;;5052952;28;20123;-67
2022/03/19 10:35:41;;;;;;;11.65;5.68;;;12.40;99.90;;;;;;5046946;28;20510;-68
2022/03/19 10:38:23;;;;;;;14.45;5.50;;;12.90;99.90;;;;;;5051110;28;20052;-66
2022/03/19 10:40:53;;;;;;;8.57;4.60;;;13.50;99.90;;;;;;5040592;28;20075;-66
2022/03/19 10:43:22;;;;;;;10.88;5.40;;;13.60;99.90;;;;;;5045741;28;20143;-66
2022/03/19 10:45:52;;;;;;;12.95;5.53;;;13.60;99.90;;;;;;5048155;28;20056;-66
2022/03/19 10:48:23;;;;;;;9.02;4.75;;;13.70;99.90;;;;;;5049421;28;20048;-66
2022/03/19 10:50:51;;;;;;;10.98;5.13;;;13.90;99.90;;;;;;5054579;28;20051;-67
2022/03/19 10:53:20;;;;;;;10.82;4.80;;;14.10;99.90;;;;;;5049671;28;20055;-65
2022/03/19 10:55:47;;;;;;;11.95;4.82;;;14.00;99.90;;;;;;5054251;28;20127;-65
2022/03/19 10:58:16;;;;;;;12.60;5.30;;;14.20;99.90;;;;;;5051404;28;20049;-67
2022/03/19 11:01:03;;;;;;;9.52;4.82;;;14.40;99.90;;;;;;5049508;28;20069;-67
2022/03/19 11:03:35;;;;;;;10.52;5.40;;;14.10;99.90;;;;;;5044474;28;20037;-66
2022/03/19 11:06:08;;;;;;;12.50;6.10;;;13.90;99.90;;;;;;5057863;28;20360;-67
2022/03/19 11:08:46;;;;;;;11.85;5.70;;;13.50;99.90;;;;;;5061490;28;20579;-67
2022/03/19 11:11:47;;;;;;;16.13;6.35;;;13.10;99.90;;;;;;5058265;28;20357;-68
2022/03/19 11:14:22;;;;;;;12.63;6.50;;;12.90;99.90;;;;;;5038069;28;20395;-67
2022/03/19 11:17:24;;;;;;;13.52;6.75;;;12.40;99.90;;;;;;5051163;28;20557;-66
2022/03/19 11:20:00;;;;;;;11.93;6.13;;;11.90;99.90;;;;;;5026500;28;20051;-66
2022/03/19 11:22:44;;;;;;;11.95;6.35;;;11.60;99.90;;;;;;5049949;28;20071;-65
2022/03/19 11:25:22;;;;;;;11.13;6.43;;;11.50;99.90;;;;;;5052021;28;20424;-67
2022/03/19 11:27:51;;;;;;;10.95;5.53;;;11.40;99.90;;;;;;5046539;28;20060;-66
2022/03/19 11:30:24;;;;;;;11.07;5.30;;;11.60;99.90;;;;;;5049500;28;20072;-66
2022/03/19 11:33:14;;;;;;;11.55;5.60;;;11.80;99.90;;;;;;5056984;28;20049;-66
2022/03/19 11:35:56;;;;;;;10.82;5.97;;;12.70;99.90;;;;;;5053671;28;20070;-67
2022/03/19 11:38:24;;;;;;;14.95;6.15;;;13.50;99.90;;;;;;5046771;28;20044;-66
2022/03/19 11:40:55;;;;;;;13.25;6.35;;;14.20;99.90;;;;;;5060068;28;20041;-66
2022/03/19 11:43:29;;;;;;;12.18;6.45;;;14.70;99.90;;;;;;5068595;28;20049;-66
2022/03/19 11:45:59;;;;;;;11.68;5.75;;;15.20;99.90;;;;;;5059952;28;20408;-66
2022/03/19 11:48:38;;;;;;;8.55;5.07;;;15.20;99.90;;;;;;5043363;28;20662;-66
2022/03/19 11:51:32;;;;;;;9.02;5.28;;;15.00;99.90;;;;;;5066037;28;20518;-66
2022/03/19 11:54:19;;;;;;;14.70;5.57;;;15.30;98.90;;;;;;5055995;28;20047;-66
2022/03/19 11:56:47;;;;;;;9.77;5.05;;;15.60;98.20;;;;;;5057772;28;20042;-67
2022/03/19 11:59:23;;;;;;;10.60;5.28;;;15.30;98.10;;;;;;5062069;28;20060;-66
2022/03/19 12:01:59;;;;;;;10.65;4.63;;;15.80;97.40;;;;;;5047731;28;20105;-66
2022/03/19 12:04:40;;;;;;;12.40;5.38;;;15.70;96.90;;;;;;5065956;28;20075;-66
2022/03/19 12:07:07;;;;;;;11.07;5.82;;;15.70;96.50;;;;;;5069768;28;20142;-66
2022/03/19 12:09:39;;;;;;;8.10;4.72;;;15.10;95.90;;;;;;5071757;28;20152;-66
2022/03/19 12:12:07;;;;;;;9.93;4.97;;;14.80;96.10;;;;;;5056103;28;20052;-66
2022/03/19 12:14:35;;;;;;;13.77;4.32;;;14.10;97.90;;;;;;5045864;28;20033;-66
2022/03/19 12:17:28;;;;;;;10.65;4.47;;;12.80;99.90;;;;;;5054078;28;20090;-65
2022/03/19 12:20:04;;;;;;;7.85;3.47;;;11.40;99.90;;;;;;5054753;28;20511;-66
2022/03/19 12:22:41;;;;;;;11.13;4.13;;;10.40;99.90;;;;;;5051608;28;20045;-67
2022/03/19 12:25:20;;;;;;;10.40;5.43;;;9.70;99.90;;;;;;5050825;28;20057;-67
2022/03/19 12:27:50;;;;;;;11.32;4.32;;;9.20;99.90;;;;;;5056718;28;20059;-66
2022/03/19 12:30:18;;;;;;;10.23;5.05;;;8.70;99.90;;;;;;5053901;28;20124;-67
2022/03/19 12:32:54;;;;;;;12.57;5.32;;;8.30;99.90;;;;;;5052564;28;20482;-67
2022/03/19 12:35:22;;;;;;;9.57;5.75;;;8.00;99.90;;;;;;5055630;28;20048;-66
2022/03/19 12:37:53;;;;;;;9.98;5.15;;;7.70;99.90;;;;;;5055276;28;20194;-67
2022/03/19 12:40:26;;;;;;;12.50;5.78;;;7.50;99.90;;;;;;5025576;28;20055;-65
2022/03/19 12:42:58;;;;;;;8.55;5.40;;;7.40;99.90;;;;;;5053326;28;20053;-67
2022/03/19 12:45:43;;;;;;;11.90;6.93;;;7.20;99.90;;;;;;5053698;28;20049;-67
2022/03/19 12:48:13;;;;;;;12.40;5.45;;;7.10;99.90;;;;;;5059011;28;20430;-67
2022/03/19 12:50:54;;;;;;;8.55;4.45;;;7.10;99.90;;;;;;5054481;28;20613;-66
2022/03/19 12:53:39;;;;;;;8.23;4.25;;;7.10;99.90;;;;;;5053394;28;20064;-66
2022/03/19 12:56:13;;;;;;;10.65;5.00;;;7.00;99.90;;;;;;5050117;28;20074;-67
2022/03/19 12:58:43;;;;;;;10.32;5.38;;;7.10;99.90;;;;;;5042168;28;20045;-66
2022/03/19 13:01:15;;;;;;;8.45;4.35;;;7.20;99.90;;;;;;5057815;28;20045;-66
2022/03/19 13:03:43;;;;;;;7.10;4.13;;;7.30;99.90;;;;;;5065025;28;20393;-67
2022/03/19 13:06:14;;;;;;;9.13;4.30;;;7.50;99.90;;;;;;5059097;28;20057;-67